Flight Track Log - Related Links

Times and Time Zones

All times are in EDT time to prevent confusion due to time zone crossing. See the SWA1084 flight status page for this flight to view local times or setup timezone preferences in your user account.

Time Position Orientation Groundspeed Altitude Reporting Facility
EDT Latitude Longitude Course Direction KTS MPH feet Rate Location/Type
Sun 03:51:23 PM 42.9500 -71.4333 325° Northwest 139 160 1,300  Level KA90
Sun 03:52:08 PM 42.9706 -71.4528 325° Northwest 152 175 2,500 2,660 Climbing Boston Center
Sun 03:53:09 PM 43.0264 -71.4656 351° North 207 238 6,000 3,220 Climbing Boston Center
Sun 03:54:11 PM 43.0392 -71.3783 79° East 248 285 9,100 3,073 Climbing Boston Center
Sun 03:55:12 PM 43.0311 -71.2664 96° East 318 366 12,300 3,220 Climbing Boston Center
Sun 03:56:14 PM 42.9639 -71.1625 131° Southeast 365 420 15,700 3,435 Climbing Boston Center
Sun 03:57:16 PM 42.8961 -71.0539 130° Southeast 377 434 19,400 2,585 Climbing Boston Center
Sun 03:58:17 PM 42.8061 -70.9761 148° Southeast 403 464 21,000 1,610 Climbing Boston Center
Sun 03:59:19 PM 42.6997 -71.0192 197° South 401 461 22,700 1,463 Climbing Boston Center
Sun 04:00:20 PM 42.5906 -71.0722 200° South 413 475 24,000 1,122 Climbing Boston Center
Sun 04:01:22 PM 42.4914 -71.1892 221° Southwest 408 470 25,000 532 Climbing Boston Center
Sun 04:02:24 PM 42.4419 -71.3247 244° Southwest 405 466 25,100 1,073 Climbing Boston Center
Sun 04:03:25 PM 42.3919 -71.4636 244° Southwest 407 468 27,200 1,951 Climbing Boston Center
Sun 04:04:27 PM 42.3461 -71.5953 245° Southwest 421 484 29,100 2,146 Climbing Boston Center
Sun 04:05:28 PM 42.2911 -71.7400 243° Southwest 428 493 31,600 2,390 Climbing Boston Center
Sun 04:06:30 PM 42.2050 -71.8975 234° Southwest 437 503 34,000 1,161 Climbing Boston Center
Sun 04:07:32 PM 42.1353 -72.0278 234° Southwest 429 494 34,000  Level Boston Center
Sun 04:08:33 PM 42.0656 -72.1592 234° Southwest 429 494 34,000  Level Boston Center
Sun 04:09:35 PM 41.9953 -72.2897 234° Southwest 430 495 34,000  Level Boston Center
Sun 04:10:37 PM 41.9239 -72.4197 234° Southwest 430 495 34,000  Level Boston Center
Sun 04:11:38 PM 41.8525 -72.5508 234° Southwest 430 495 34,000  Level Boston Center
Sun 04:12:40 PM 41.7833 -72.6781 234° Southwest 429 494 34,000  Level Boston Center
Sun 04:13:41 PM 41.7133 -72.8058 234° Southwest 428 493 34,000  Level Boston Center
Sun 04:14:43 PM 41.6431 -72.9317 233° Southwest 426 490 34,000  Level Boston Center
Sun 04:15:45 PM 41.5606 -73.0817 234° Southwest 423 487 34,000  Level Boston Center
Sun 04:16:46 PM 41.4914 -73.2069 234° Southwest 425 489 34,000  Level Boston Center
Sun 04:17:48 PM 41.4175 -73.3364 233° Southwest 439 505 34,000  Level Boston Center
Sun 04:18:50 PM 41.3442 -73.4664 233° Southwest 439 505 34,000  Level Boston Center
Sun 04:19:51 PM 41.2717 -73.5969 234° Southwest 440 506 34,000  Level Boston Center
Sun 04:20:53 PM 41.1967 -73.7247 232° Southwest 440 506 34,000  Level Boston Center
Sun 04:21:54 PM 41.1039 -73.8772 231° Southwest 442 509 34,000  Level Boston Center
Sun 04:22:40 PM 41.0558 -73.9658 234° Southwest 450 518 34,000  Level New York Center
Sun 04:23:40 PM 40.9794 -74.0942 232° Southwest 450 518 34,000 -1,050 Level New York Center
Sun 04:24:40 PM 40.8989 -74.2164 229° Southwest 450 518 31,900 -2,500 Descending New York Center
Sun 04:25:40 PM 40.8242 -74.3442 232° Southwest 450 518 29,000 -1,950 Descending New York Center
Sun 04:26:40 PM 40.7517 -74.4664 232° Southwest 450 518 28,000 -500 Descending New York Center
Sun 04:27:40 PM 40.6792 -74.5856 231° Southwest 438 504 28,000 -350 Level New York Center
Sun 04:28:40 PM 40.6186 -74.7161 239° Southwest 426 490 27,300 -850 Descending New York Center
Sun 04:29:40 PM 40.5661 -74.8497 243° Southwest 416 479 26,300 -1,000 Descending New York Center
Sun 04:30:40 PM 40.5117 -74.9775 241° Southwest 406 467 25,300 -1,000 Descending New York Center
Sun 04:31:40 PM 40.4467 -75.1019 236° Southwest 406 467 24,300 -1,000 Descending New York Center
Sun 04:32:40 PM 40.3594 -75.2081 223° Southwest 415 478 23,300 -1,000 Descending New York Center
Sun 04:33:40 PM 40.2703 -75.3031 219° Southwest 421 484 22,300 -1,000 Descending New York Center
Sun 04:34:40 PM 40.1814 -75.3950 218° Southwest 416 479 21,300 -1,000 Descending New York Center
Sun 04:35:40 PM 40.0942 -75.4894 220° Southwest 416 479 20,300 -1,000 Descending New York Center
Sun 04:36:40 PM 40.0092 -75.5814 220° Southwest 411 473 19,300 -1,000 Descending New York Center
Sun 04:37:40 PM 39.9219 -75.6728 219° Southwest 411 473 18,300 -1,100 Descending New York Center
Sun 04:38:40 PM 39.8569 -75.7844 233° Southwest 378 435 17,100 -750 Descending New York Center
Sun 04:39:40 PM 39.8181 -75.8628 237° Southwest 324 373 16,800 -1,150 Descending New York Center
Sun 04:40:40 PM 39.7703 -75.9567 237° Southwest 291 335 14,800 -1,455 Descending New York Center
Sun 04:42:58 PM 39.6667 -76.1500 235° Southwest 282 325 12,000 -844 Descending Potomac TRACON
Sun 04:43:59 PM 39.6167 -76.2333 232° Southwest 282 325 12,000 -843 Level Potomac TRACON
Sun 04:44:59 PM 39.5667 -76.3167 232° Southwest 300 345 10,300 -1,550 Descending Potomac TRACON
Sun 04:45:59 PM 39.5000 -76.3833 218° Southwest 298 343 8,900 -1,190 Descending Potomac TRACON
Sun 04:47:00 PM 39.4333 -76.4333 210° Southwest 291 335 7,900 -1,041 Descending Potomac TRACON
Sun 04:48:00 PM 39.3500 -76.4667 197° South 299 344 6,800 -1,150 Descending Potomac TRACON
Sun 04:49:00 PM 39.2833 -76.4333 159° South 289 333 5,600 -1,339 Descending Potomac TRACON
Sun 04:50:01 PM 39.2000 -76.4167 171° South 278 320 4,100 -1,140 Descending Potomac TRACON
Sun 04:51:01 PM 39.1333 -76.4000 169° South 258 297 3,300 -550 Descending Potomac TRACON
Sun 04:52:01 PM 39.0667 -76.4333 201° Southwest 222 255 3,000 -149 Descending Potomac TRACON
Sun 04:53:02 PM 39.0333 -76.4667 218° Southwest 192 221 3,000 -50 Level Potomac TRACON
Sun 04:54:02 PM 39.0333 -76.5333 270° West 173 199 2,900 -250 Descending Potomac TRACON
Sun 04:55:02 PM 39.0667 -76.5667 322° Northwest 171 197 2,500 -645 Descending Potomac TRACON
Sun 04:56:03 PM 39.1000 -76.6167 311° West 165 190 1,600 -843 Descending Potomac TRACON
Sun 04:57:03 PM 39.1333 -76.6333 339° North 133 153 800 -800 Descending Potomac TRACON

Login

Don't have an account? Register now (free) for customized features, flight alerts, and more!